sensor_id;sensor_type;location;lat;lon;timestamp;P1;durP1;ratioP1;P2;durP2;ratioP2
1204;SDS011;592;48.764;9.174;2023-08-12T04:35:10;10.70;;;6.67;;
1204;SDS011;592;48.764;9.174;2023-08-12T04:38:03;9.10;;;5.93;;
1204;SDS011;592;48.764;9.174;2023-08-12T04:40:53;8.17;;;6.20;;
1204;SDS011;592;48.764;9.174;2023-08-12T04:43:53;8.00;;;5.90;;
1204;SDS011;592;48.764;9.174;2023-08-12T04:50:00;7.63;;;5.50;;
1204;SDS011;592;48.764;9.174;2023-08-12T04:52:37;9.60;;;6.47;;
1204;SDS011;592;48.764;9.174;2023-08-12T04:55:12;9.23;;;6.37;;
1204;SDS011;592;48.764;9.174;2023-08-12T05:03:13;7.90;;;5.30;;
1204;SDS011;592;48.764;9.174;2023-08-12T05:05:41;8.70;;;5.80;;
1204;SDS011;592;48.764;9.174;2023-08-12T05:08:08;8.20;;;5.30;;
1204;SDS011;592;48.764;9.174;2023-08-12T05:10:34;7.57;;;5.77;;
1204;SDS011;592;48.764;9.174;2023-08-12T05:13:02;7.30;;;5.73;;
1204;SDS011;592;48.764;9.174;2023-08-12T05:15:29;9.70;;;5.97;;
1204;SDS011;592;48.764;9.174;2023-08-12T05:17:55;7.57;;;5.70;;
1204;SDS011;592;48.764;9.174;2023-08-12T05:20:22;8.50;;;5.80;;
1204;SDS011;592;48.764;9.174;2023-08-12T05:22:50;8.17;;;5.87;;
1204;SDS011;592;48.764;9.174;2023-08-12T05:25:17;9.40;;;6.40;;
1204;SDS011;592;48.764;9.174;2023-08-12T05:27:44;9.03;;;6.00;;
1204;SDS011;592;48.764;9.174;2023-08-12T05:30:11;8.00;;;5.83;;
1204;SDS011;592;48.764;9.174;2023-08-12T05:32:38;8.77;;;6.20;;
1204;SDS011;592;48.764;9.174;2023-08-12T05:35:05;8.50;;;5.53;;
1204;SDS011;592;48.764;9.174;2023-08-12T05:37:32;8.77;;;6.20;;
1204;SDS011;592;48.764;9.174;2023-08-12T05:40:01;6.83;;;5.20;;
1204;SDS011;592;48.764;9.174;2023-08-12T05:42:28;9.00;;;5.70;;
1204;SDS011;592;48.764;9.174;2023-08-12T05:44:54;10.40;;;6.30;;
1204;SDS011;592;48.764;9.174;2023-08-12T05:47:21;12.00;;;6.73;;
1204;SDS011;592;48.764;9.174;2023-08-12T05:49:48;9.13;;;6.10;;
1204;SDS011;592;48.764;9.174;2023-08-12T05:52:15;8.20;;;5.97;;
1204;SDS011;592;48.764;9.174;2023-08-12T05:54:41;8.60;;;6.30;;
1204;SDS011;592;48.764;9.174;2023-08-12T05:57:09;10.43;;;6.10;;
1204;SDS011;592;48.764;9.174;2023-08-12T05:59:36;8.53;;;6.40;;
1204;SDS011;592;48.764;9.174;2023-08-12T06:02:03;10.80;;;6.07;;
1204;SDS011;592;48.764;9.174;2023-08-12T06:04:30;10.07;;;5.73;;
1204;SDS011;592;48.764;9.174;2023-08-12T06:06:56;7.83;;;5.80;;
1204;SDS011;592;48.764;9.174;2023-08-12T06:09:23;8.80;;;6.30;;
1204;SDS011;592;48.764;9.174;2023-08-12T06:11:50;8.53;;;5.63;;
1204;SDS011;592;48.764;9.174;2023-08-12T06:14:18;9.30;;;6.50;;
1204;SDS011;592;48.764;9.174;2023-08-12T06:16:45;9.20;;;6.47;;
1204;SDS011;592;48.764;9.174;2023-08-12T06:19:11;10.43;;;5.90;;
1204;SDS011;592;48.764;9.174;2023-08-12T06:21:38;8.47;;;6.17;;
1204;SDS011;592;48.764;9.174;2023-08-12T06:24:05;8.60;;;5.93;;
1204;SDS011;592;48.764;9.174;2023-08-12T06:26:32;10.67;;;6.30;;
1204;SDS011;592;48.764;9.174;2023-08-12T06:28:59;9.20;;;6.07;;
1204;SDS011;592;48.764;9.174;2023-08-12T06:31:27;8.87;;;5.77;;
1204;SDS011;592;48.764;9.174;2023-08-12T06:33:53;8.70;;;6.37;;
1204;SDS011;592;48.764;9.174;2023-08-12T06:36:20;8.90;;;6.20;;
1204;SDS011;592;48.764;9.174;2023-08-12T06:38:47;9.27;;;5.60;;
1204;SDS011;592;48.764;9.174;2023-08-12T06:41:14;8.70;;;5.57;;
1204;SDS011;592;48.764;9.174;2023-08-12T06:43:40;9.33;;;5.83;;
1204;SDS011;592;48.764;9.174;2023-08-12T06:46:07;8.60;;;6.67;;
1204;SDS011;592;48.764;9.174;2023-08-12T06:48:35;10.10;;;6.87;;
1204;SDS011;592;48.764;9.174;2023-08-12T06:51:02;9.57;;;6.80;;
1204;SDS011;592;48.764;9.174;2023-08-12T06:53:35;9.10;;;6.27;;
1204;SDS011;592;48.764;9.174;2023-08-12T06:56:02;9.20;;;5.70;;
1204;SDS011;592;48.764;9.174;2023-08-12T06:58:29;11.23;;;6.47;;
1204;SDS011;592;48.764;9.174;2023-08-12T07:00:55;9.53;;;7.10;;
1204;SDS011;592;48.764;9.174;2023-08-12T07:03:24;9.03;;;6.30;;
1204;SDS011;592;48.764;9.174;2023-08-12T07:05:52;12.00;;;6.57;;
1204;SDS011;592;48.764;9.174;2023-08-12T07:08:19;9.77;;;6.73;;
1204;SDS011;592;48.764;9.174;2023-08-12T07:10:46;9.40;;;6.50;;
1204;SDS011;592;48.764;9.174;2023-08-12T07:13:13;7.30;;;5.83;;
1204;SDS011;592;48.764;9.174;2023-08-12T07:15:39;8.33;;;6.10;;
1204;SDS011;592;48.764;9.174;2023-08-12T07:18:06;6.70;;;5.57;;
1204;SDS011;592;48.764;9.174;2023-08-12T07:20:33;8.70;;;5.80;;
1204;SDS011;592;48.764;9.174;2023-08-12T07:23:01;9.83;;;6.97;;
1204;SDS011;592;48.764;9.174;2023-08-12T07:25:28;10.60;;;7.13;;
1204;SDS011;592;48.764;9.174;2023-08-12T07:27:54;7.57;;;6.10;;
1204;SDS011;592;48.764;9.174;2023-08-12T07:30:21;9.20;;;6.50;;
1204;SDS011;592;48.764;9.174;2023-08-12T07:32:48;9.50;;;6.23;;
1204;SDS011;592;48.764;9.174;2023-08-12T07:35:14;9.10;;;6.93;;
1204;SDS011;592;48.764;9.174;2023-08-12T07:37:41;7.90;;;6.00;;
1204;SDS011;592;48.764;9.174;2023-08-12T07:40:10;10.33;;;6.90;;
1204;SDS011;592;48.764;9.174;2023-08-12T07:42:37;10.53;;;6.37;;
1204;SDS011;592;48.764;9.174;2023-08-12T07:45:05;8.73;;;7.00;;
1204;SDS011;592;48.764;9.174;2023-08-12T07:47:34;9.53;;;6.70;;
1204;SDS011;592;48.764;9.174;2023-08-12T07:50:00;10.77;;;6.40;;
1204;SDS011;592;48.764;9.174;2023-08-12T07:52:27;10.43;;;7.53;;
1204;SDS011;592;48.764;9.174;2023-08-12T07:54:54;9.33;;;6.27;;
1204;SDS011;592;48.764;9.174;2023-08-12T07:57:22;11.57;;;8.50;;
1204;SDS011;592;48.764;9.174;2023-08-12T07:59:49;10.37;;;6.67;;
1204;SDS011;592;48.764;9.174;2023-08-12T08:02:16;10.73;;;7.10;;
1204;SDS011;592;48.764;9.174;2023-08-12T08:04:42;9.67;;;7.20;;
1204;SDS011;592;48.764;9.174;2023-08-12T08:07:10;11.07;;;7.57;;
1204;SDS011;592;48.764;9.174;2023-08-12T08:09:37;11.47;;;6.70;;
1204;SDS011;592;48.764;9.174;2023-08-12T08:12:04;9.93;;;6.87;;
1204;SDS011;592;48.764;9.174;2023-08-12T08:14:32;8.03;;;6.13;;
1204;SDS011;592;48.764;9.174;2023-08-12T08:16:59;8.93;;;6.33;;
1204;SDS011;592;48.764;9.174;2023-08-12T08:19:26;8.77;;;6.40;;
1204;SDS011;592;48.764;9.174;2023-08-12T08:21:53;9.13;;;6.57;;
1204;SDS011;592;48.764;9.174;2023-08-12T08:24:20;14.60;;;7.13;;
1204;SDS011;592;48.764;9.174;2023-08-12T08:26:46;10.53;;;6.37;;
1204;SDS011;592;48.764;9.174;2023-08-12T08:29:13;9.37;;;7.67;;
1204;SDS011;592;48.764;9.174;2023-08-12T08:31:41;10.30;;;6.80;;
1204;SDS011;592;48.764;9.174;2023-08-12T08:34:08;9.20;;;7.00;;
1204;SDS011;592;48.764;9.174;2023-08-12T08:36:35;9.33;;;6.93;;
1204;SDS011;592;48.764;9.174;2023-08-12T08:39:02;11.07;;;6.53;;
1204;SDS011;592;48.764;9.174;2023-08-12T08:41:30;11.40;;;6.80;;
1204;SDS011;592;48.764;9.174;2023-08-12T08:43:58;9.37;;;7.30;;
1204;SDS011;592;48.764;9.174;2023-08-12T08:46:29;10.30;;;7.10;;
1204;SDS011;592;48.764;9.174;2023-08-12T08:48:58;13.03;;;7.60;;
1204;SDS011;592;48.764;9.174;2023-08-12T08:51:26;9.23;;;7.40;;
1204;SDS011;592;48.764;9.174;2023-08-12T08:53:55;8.47;;;5.90;;
1204;SDS011;592;48.764;9.174;2023-08-12T08:56:23;11.53;;;7.13;;
1204;SDS011;592;48.764;9.174;2023-08-12T08:58:50;11.97;;;7.40;;
1204;SDS011;592;48.764;9.174;2023-08-12T09:01:19;8.70;;;6.43;;
1204;SDS011;592;48.764;9.174;2023-08-12T09:03:48;9.30;;;7.20;;
1204;SDS011;592;48.764;9.174;2023-08-12T09:06:19;9.30;;;6.40;;
1204;SDS011;592;48.764;9.174;2023-08-12T09:08:48;12.53;;;7.30;;
1204;SDS011;592;48.764;9.174;2023-08-12T09:11:17;11.13;;;6.87;;
1204;SDS011;592;48.764;9.174;2023-08-12T09:13:45;8.70;;;6.40;;
1204;SDS011;592;48.764;9.174;2023-08-12T09:16:12;14.20;;;6.70;;
1204;SDS011;592;48.764;9.174;2023-08-12T09:18:40;7.90;;;6.17;;
1204;SDS011;592;48.764;9.174;2023-08-12T09:21:08;9.27;;;6.77;;
1204;SDS011;592;48.764;9.174;2023-08-12T09:23:36;10.10;;;6.50;;
1204;SDS011;592;48.764;9.174;2023-08-12T09:26:10;9.20;;;6.50;;
1204;SDS011;592;48.764;9.174;2023-08-12T09:28:39;10.93;;;6.40;;
1204;SDS011;592;48.764;9.174;2023-08-12T09:31:06;8.37;;;6.40;;
1204;SDS011;592;48.764;9.174;2023-08-12T09:33:38;9.20;;;6.30;;
1204;SDS011;592;48.764;9.174;2023-08-12T09:36:05;5.47;;;3.60;;
1204;SDS011;592;48.764;9.174;2023-08-12T09:38:32;7.70;;;4.20;;
1204;SDS011;592;48.764;9.174;2023-08-12T09:41:01;5.93;;;3.80;;
1204;SDS011;592;48.764;9.174;2023-08-12T09:43:28;5.37;;;4.03;;
1204;SDS011;592;48.764;9.174;2023-08-12T09:45:55;10.53;;;3.73;;
1204;SDS011;592;48.764;9.174;2023-08-12T09:48:24;5.93;;;3.67;;
1204;SDS011;592;48.764;9.174;2023-08-12T09:50:51;5.93;;;3.93;;
1204;SDS011;592;48.764;9.174;2023-08-12T09:53:18;6.00;;;4.00;;
1204;SDS011;592;48.764;9.174;2023-08-12T09:55:45;5.97;;;3.90;;
1204;SDS011;592;48.764;9.174;2023-08-12T09:58:15;8.50;;;3.97;;
1204;SDS011;592;48.764;9.174;2023-08-12T10:00:44;5.63;;;3.90;;
1204;SDS011;592;48.764;9.174;2023-08-12T10:03:11;7.00;;;3.73;;
1204;SDS011;592;48.764;9.174;2023-08-12T10:05:40;6.77;;;3.30;;
1204;SDS011;592;48.764;9.174;2023-08-12T10:08:07;6.30;;;3.50;;
1204;SDS011;592;48.764;9.174;2023-08-12T10:10:35;6.70;;;4.10;;
1204;SDS011;592;48.764;9.174;2023-08-12T10:13:02;8.10;;;4.30;;
1204;SDS011;592;48.764;9.174;2023-08-12T10:15:33;6.00;;;3.77;;
1204;SDS011;592;48.764;9.174;2023-08-12T10:18:00;5.80;;;3.60;;
1204;SDS011;592;48.764;9.174;2023-08-12T10:20:27;6.20;;;4.07;;
1204;SDS011;592;48.764;9.174;2023-08-12T10:22:57;6.83;;;3.90;;
1204;SDS011;592;48.764;9.174;2023-08-12T10:25:28;6.57;;;4.13;;
1204;SDS011;592;48.764;9.174;2023-08-12T10:27:58;6.40;;;4.13;;
1204;SDS011;592;48.764;9.174;2023-08-12T10:30:27;8.30;;;4.73;;
1204;SDS011;592;48.764;9.174;2023-08-12T10:32:56;7.10;;;4.37;;
1204;SDS011;592;48.764;9.174;2023-08-12T10:35:33;5.43;;;4.23;;
1204;SDS011;592;48.764;9.174;2023-08-12T10:38:10;8.20;;;3.97;;
1204;SDS011;592;48.764;9.174;2023-08-12T10:40:39;5.03;;;3.43;;
1204;SDS011;592;48.764;9.174;2023-08-12T10:43:05;7.90;;;4.93;;
1204;SDS011;592;48.764;9.174;2023-08-12T10:45:42;8.90;;;4.70;;
1204;SDS011;592;48.764;9.174;2023-08-12T10:48:15;7.33;;;4.50;;
1204;SDS011;592;48.764;9.174;2023-08-12T10:50:44;5.00;;;3.87;;
1204;SDS011;592;48.764;9.174;2023-08-12T10:53:22;6.57;;;4.30;;
1204;SDS011;592;48.764;9.174;2023-08-12T10:55:54;6.37;;;4.63;;
1204;SDS011;592;48.764;9.174;2023-08-12T10:58:29;7.60;;;4.40;;
1204;SDS011;592;48.764;9.174;2023-08-12T11:00:59;7.30;;;4.50;;
1204;SDS011;592;48.764;9.174;2023-08-12T11:03:30;6.50;;;4.50;;
1204;SDS011;592;48.764;9.174;2023-08-12T11:05:59;6.37;;;4.10;;
1204;SDS011;592;48.764;9.174;2023-08-12T11:08:26;8.30;;;4.30;;
1204;SDS011;592;48.764;9.174;2023-08-12T11:10:54;5.93;;;3.70;;
1204;SDS011;592;48.764;9.174;2023-08-12T11:13:23;6.90;;;3.97;;
1204;SDS011;592;48.764;9.174;2023-08-12T11:15:52;7.93;;;4.30;;
1204;SDS011;592;48.764;9.174;2023-08-12T11:18:34;6.73;;;4.07;;
1204;SDS011;592;48.764;9.174;2023-08-12T11:21:00;5.77;;;3.90;;
1204;SDS011;592;48.764;9.174;2023-08-12T11:23:29;6.83;;;4.10;;
1204;SDS011;592;48.764;9.174;2023-08-12T11:25:56;7.70;;;4.33;;
1204;SDS011;592;48.764;9.174;2023-08-12T11:28:24;5.80;;;4.23;;
1204;SDS011;592;48.764;9.174;2023-08-12T11:30:51;7.10;;;4.37;;
1204;SDS011;592;48.764;9.174;2023-08-12T11:33:17;5.93;;;3.73;;
1204;SDS011;592;48.764;9.174;2023-08-12T11:35:46;6.23;;;4.03;;
1204;SDS011;592;48.764;9.174;2023-08-12T11:38:13;5.70;;;3.77;;
1204;SDS011;592;48.764;9.174;2023-08-12T11:40:41;6.43;;;4.43;;
1204;SDS011;592;48.764;9.174;2023-08-12T11:43:08;7.53;;;4.57;;
1204;SDS011;592;48.764;9.174;2023-08-12T11:45:34;6.20;;;4.43;;
1204;SDS011;592;48.764;9.174;2023-08-12T11:48:03;6.07;;;4.27;;
1204;SDS011;592;48.764;9.174;2023-08-12T11:50:31;6.63;;;4.17;;
1204;SDS011;592;48.764;9.174;2023-08-12T11:52:59;8.90;;;4.30;;
1204;SDS011;592;48.764;9.174;2023-08-12T11:55:26;7.80;;;4.47;;
1204;SDS011;592;48.764;9.174;2023-08-12T11:57:53;10.77;;;4.30;;
1204;SDS011;592;48.764;9.174;2023-08-12T12:00:19;7.57;;;4.40;;
1204;SDS011;592;48.764;9.174;2023-08-12T12:02:49;8.53;;;4.50;;
1204;SDS011;592;48.764;9.174;2023-08-12T12:05:17;5.93;;;4.00;;
1204;SDS011;592;48.764;9.174;2023-08-12T12:07:44;7.67;;;4.47;;
1204;SDS011;592;48.764;9.174;2023-08-12T12:10:19;6.00;;;3.83;;
1204;SDS011;592;48.764;9.174;2023-08-12T12:12:46;7.93;;;5.40;;
1204;SDS011;592;48.764;9.174;2023-08-12T12:15:14;10.40;;;5.90;;
1204;SDS011;592;48.764;9.174;2023-08-12T12:17:41;8.73;;;5.33;;
1204;SDS011;592;48.764;9.174;2023-08-12T12:20:08;8.00;;;5.27;;
1204;SDS011;592;48.764;9.174;2023-08-12T12:22:36;9.67;;;5.73;;
1204;SDS011;592;48.764;9.174;2023-08-12T12:25:07;9.77;;;6.00;;
1204;SDS011;592;48.764;9.174;2023-08-12T12:27:38;8.00;;;5.70;;
1204;SDS011;592;48.764;9.174;2023-08-12T12:30:05;9.20;;;6.47;;
1204;SDS011;592;48.764;9.174;2023-08-12T12:32:34;15.27;;;5.47;;
1204;SDS011;592;48.764;9.174;2023-08-12T12:35:00;12.53;;;5.77;;
1204;SDS011;592;48.764;9.174;2023-08-12T12:37:27;9.63;;;5.80;;
1204;SDS011;592;48.764;9.174;2023-08-12T12:39:54;9.70;;;5.27;;
1204;SDS011;592;48.764;9.174;2023-08-12T12:42:21;8.93;;;5.47;;
1204;SDS011;592;48.764;9.174;2023-08-12T12:44:49;6.70;;;4.77;;
1204;SDS011;592;48.764;9.174;2023-08-12T12:47:16;8.67;;;5.10;;
1204;SDS011;592;48.764;9.174;2023-08-12T12:49:43;7.10;;;4.73;;
1204;SDS011;592;48.764;9.174;2023-08-12T12:52:10;8.70;;;4.83;;
1204;SDS011;592;48.764;9.174;2023-08-12T12:54:37;7.87;;;5.13;;
1204;SDS011;592;48.764;9.174;2023-08-12T12:57:03;7.20;;;4.90;;
1204;SDS011;592;48.764;9.174;2023-08-12T12:59:32;8.43;;;5.60;;
1204;SDS011;592;48.764;9.174;2023-08-12T13:02:00;7.70;;;5.60;;
1204;SDS011;592;48.764;9.174;2023-08-12T13:04:27;7.60;;;5.63;;
1204;SDS011;592;48.764;9.174;2023-08-12T13:06:54;7.80;;;5.30;;
1204;SDS011;592;48.764;9.174;2023-08-12T13:09:21;31.07;;;6.47;;
1204;SDS011;592;48.764;9.174;2023-08-12T13:11:48;21.73;;;6.20;;
1204;SDS011;592;48.764;9.174;2023-08-12T13:14:14;9.70;;;6.43;;
1204;SDS011;592;48.764;9.174;2023-08-12T13:16:43;9.17;;;6.40;;
1204;SDS011;592;48.764;9.174;2023-08-12T13:19:11;10.70;;;6.70;;
1204;SDS011;592;48.764;9.174;2023-08-12T13:21:38;10.90;;;7.80;;
1204;SDS011;592;48.764;9.174;2023-08-12T13:24:05;8.47;;;7.27;;
1204;SDS011;592;48.764;9.174;2023-08-12T13:26:32;12.27;;;7.37;;
1204;SDS011;592;48.764;9.174;2023-08-12T13:28:59;14.63;;;6.47;;
1204;SDS011;592;48.764;9.174;2023-08-12T13:31:25;7.57;;;5.90;;
1204;SDS011;592;48.764;9.174;2023-08-12T13:33:52;10.03;;;6.40;;
1204;SDS011;592;48.764;9.174;2023-08-12T13:36:20;8.47;;;6.37;;
1204;SDS011;592;48.764;9.174;2023-08-12T13:38:47;8.57;;;6.30;;
1204;SDS011;592;48.764;9.174;2023-08-12T13:41:14;9.20;;;6.33;;
1204;SDS011;592;48.764;9.174;2023-08-12T13:43:41;8.70;;;5.80;;
1204;SDS011;592;48.764;9.174;2023-08-12T13:46:07;9.03;;;6.00;;
1204;SDS011;592;48.764;9.174;2023-08-12T13:48:34;9.10;;;6.87;;
1204;SDS011;592;48.764;9.174;2023-08-12T13:51:01;8.30;;;5.60;;
1204;SDS011;592;48.764;9.174;2023-08-12T13:53:29;10.47;;;6.83;;
1204;SDS011;592;48.764;9.174;2023-08-12T13:55:56;10.50;;;6.00;;
1204;SDS011;592;48.764;9.174;2023-08-12T13:58:23;10.50;;;6.30;;
1204;SDS011;592;48.764;9.174;2023-08-12T14:00:49;8.50;;;5.57;;
1204;SDS011;592;48.764;9.174;2023-08-12T14:03:16;8.67;;;5.60;;
1204;SDS011;592;48.764;9.174;2023-08-12T14:05:43;9.07;;;5.33;;
1204;SDS011;592;48.764;9.174;2023-08-12T14:08:10;6.10;;;4.60;;
1204;SDS011;592;48.764;9.174;2023-08-12T14:10:38;8.23;;;5.03;;
1204;SDS011;592;48.764;9.174;2023-08-12T14:13:05;8.67;;;5.60;;
1204;SDS011;592;48.764;9.174;2023-08-12T14:15:32;8.63;;;5.20;;
1204;SDS011;592;48.764;9.174;2023-08-12T14:17:59;7.53;;;5.27;;
1204;SDS011;592;48.764;9.174;2023-08-12T14:20:26;8.10;;;5.57;;
1204;SDS011;592;48.764;9.174;2023-08-12T14:22:53;7.50;;;4.30;;
1204;SDS011;592;48.764;9.174;2023-08-12T14:25:20;7.73;;;4.00;;
1204;SDS011;592;48.764;9.174;2023-08-12T14:27:48;7.53;;;4.40;;
1204;SDS011;592;48.764;9.174;2023-08-12T14:30:17;5.70;;;4.03;;
1204;SDS011;592;48.764;9.174;2023-08-12T14:32:44;5.30;;;3.70;;
1204;SDS011;592;48.764;9.174;2023-08-12T14:35:11;6.43;;;3.73;;
1204;SDS011;592;48.764;9.174;2023-08-12T14:37:38;6.13;;;3.43;;
1204;SDS011;592;48.764;9.174;2023-08-12T14:40:05;6.90;;;4.20;;
1204;SDS011;592;48.764;9.174;2023-08-12T14:42:33;6.30;;;4.30;;
1204;SDS011;592;48.764;9.174;2023-08-12T14:45:01;6.87;;;4.50;;
1204;SDS011;592;48.764;9.174;2023-08-12T14:47:28;6.00;;;4.10;;
1204;SDS011;592;48.764;9.174;2023-08-12T14:49:55;6.47;;;4.20;;
1204;SDS011;592;48.764;9.174;2023-08-12T14:52:22;5.37;;;3.40;;
1204;SDS011;592;48.764;9.174;2023-08-12T14:54:48;8.87;;;3.97;;
1204;SDS011;592;48.764;9.174;2023-08-12T14:57:15;5.77;;;3.80;;
1204;SDS011;592;48.764;9.174;2023-08-12T14:59:42;5.93;;;3.20;;
1204;SDS011;592;48.764;9.174;2023-08-12T15:02:10;8.47;;;3.30;;
1204;SDS011;592;48.764;9.174;2023-08-12T15:04:37;5.63;;;3.47;;
1204;SDS011;592;48.764;9.174;2023-08-12T15:07:04;4.40;;;3.00;;
1204;SDS011;592;48.764;9.174;2023-08-12T15:09:31;6.23;;;3.63;;
1204;SDS011;592;48.764;9.174;2023-08-12T15:11:58;5.03;;;3.00;;
1204;SDS011;592;48.764;9.174;2023-08-12T15:14:24;5.67;;;3.53;;
1204;SDS011;592;48.764;9.174;2023-08-12T15:16:51;5.23;;;3.20;;
1204;SDS011;592;48.764;9.174;2023-08-12T15:19:19;6.13;;;2.80;;
1204;SDS011;592;48.764;9.174;2023-08-12T15:21:46;6.00;;;3.40;;
1204;SDS011;592;48.764;9.174;2023-08-12T15:24:13;8.40;;;3.60;;
1204;SDS011;592;48.764;9.174;2023-08-12T15:26:40;4.40;;;2.90;;
1204;SDS011;592;48.764;9.174;2023-08-12T15:29:07;4.90;;;2.83;;
1204;SDS011;592;48.764;9.174;2023-08-12T15:31:34;5.23;;;2.70;;
1204;SDS011;592;48.764;9.174;2023-08-12T15:34:02;5.00;;;3.30;;
1204;SDS011;592;48.764;9.174;2023-08-12T15:36:30;8.03;;;2.70;;
1204;SDS011;592;48.764;9.174;2023-08-12T15:38:58;5.90;;;3.13;;
1204;SDS011;592;48.764;9.174;2023-08-12T15:41:25;7.03;;;3.23;;
1204;SDS011;592;48.764;9.174;2023-08-12T15:43:52;3.90;;;2.40;;
1204;SDS011;592;48.764;9.174;2023-08-12T15:46:19;4.90;;;3.00;;
1204;SDS011;592;48.764;9.174;2023-08-12T15:48:45;6.30;;;3.23;;
1204;SDS011;592;48.764;9.174;2023-08-12T15:51:12;5.03;;;3.20;;
1204;SDS011;592;48.764;9.174;2023-08-12T15:53:40;4.90;;;3.10;;
1204;SDS011;592;48.764;9.174;2023-08-12T15:56:07;5.33;;;3.43;;
1204;SDS011;592;48.764;9.174;2023-08-12T15:58:34;5.50;;;3.50;;
1204;SDS011;592;48.764;9.174;2023-08-12T16:01:00;4.97;;;3.20;;
1204;SDS011;592;48.764;9.174;2023-08-12T16:03:27;6.33;;;2.83;;
1204;SDS011;592;48.764;9.174;2023-08-12T16:05:56;5.30;;;3.37;;
1204;SDS011;592;48.764;9.174;2023-08-12T16:08:23;5.40;;;3.17;;
1204;SDS011;592;48.764;9.174;2023-08-12T16:10:51;5.30;;;3.50;;
1204;SDS011;592;48.764;9.174;2023-08-12T16:13:18;6.80;;;3.70;;
1204;SDS011;592;48.764;9.174;2023-08-12T16:15:44;7.97;;;4.37;;
1204;SDS011;592;48.764;9.174;2023-08-12T16:18:12;34.90;;;5.97;;
1204;SDS011;592;48.764;9.174;2023-08-12T16:20:38;10.37;;;4.37;;
1204;SDS011;592;48.764;9.174;2023-08-12T16:23:05;7.03;;;4.47;;
1204;SDS011;592;48.764;9.174;2023-08-12T16:25:32;6.20;;;4.00;;
1204;SDS011;592;48.764;9.174;2023-08-12T16:28:00;7.30;;;4.37;;
1204;SDS011;592;48.764;9.174;2023-08-12T16:30:27;23.37;;;5.60;;
1204;SDS011;592;48.764;9.174;2023-08-12T16:32:54;11.00;;;4.60;;
1204;SDS011;592;48.764;9.174;2023-08-12T16:35:20;55.57;;;5.43;;
1204;SDS011;592;48.764;9.174;2023-08-12T16:37:48;8.23;;;5.53;;
1204;SDS011;592;48.764;9.174;2023-08-12T16:40:15;6.53;;;4.30;;
1204;SDS011;592;48.764;9.174;2023-08-12T16:42:41;12.63;;;5.60;;
1204;SDS011;592;48.764;9.174;2023-08-12T16:45:11;9.30;;;4.90;;
1204;SDS011;592;48.764;9.174;2023-08-12T16:47:38;8.43;;;4.80;;
1204;SDS011;592;48.764;9.174;2023-08-12T16:50:05;7.43;;;4.53;;
1204;SDS011;592;48.764;9.174;2023-08-12T16:52:32;6.93;;;3.90;;
1204;SDS011;592;48.764;9.174;2023-08-12T16:54:59;5.90;;;3.53;;
1204;SDS011;592;48.764;9.174;2023-08-12T16:57:26;6.40;;;3.60;;
1204;SDS011;592;48.764;9.174;2023-08-12T16:59:53;6.30;;;3.33;;
1204;SDS011;592;48.764;9.174;2023-08-12T17:02:21;5.83;;;3.40;;
1204;SDS011;592;48.764;9.174;2023-08-12T17:04:47;5.17;;;3.40;;
1204;SDS011;592;48.764;9.174;2023-08-12T17:07:14;6.60;;;3.27;;
1204;SDS011;592;48.764;9.174;2023-08-12T17:09:41;4.90;;;2.90;;
1204;SDS011;592;48.764;9.174;2023-08-12T17:12:07;5.50;;;2.90;;
1204;SDS011;592;48.764;9.174;2023-08-12T17:14:34;5.10;;;3.10;;
1204;SDS011;592;48.764;9.174;2023-08-12T17:17:01;6.43;;;3.20;;
1204;SDS011;592;48.764;9.174;2023-08-12T17:19:29;6.20;;;3.60;;
1204;SDS011;592;48.764;9.174;2023-08-12T17:21:57;6.77;;;3.20;;
1204;SDS011;592;48.764;9.174;2023-08-12T17:24:23;4.63;;;2.67;;
1204;SDS011;592;48.764;9.174;2023-08-12T17:26:50;4.93;;;2.77;;
1204;SDS011;592;48.764;9.174;2023-08-12T17:29:17;8.20;;;3.07;;
1204;SDS011;592;48.764;9.174;2023-08-12T17:31:44;4.67;;;2.40;;
1204;SDS011;592;48.764;9.174;2023-08-12T17:34:11;6.27;;;3.43;;
1204;SDS011;592;48.764;9.174;2023-08-12T17:36:39;6.13;;;3.10;;
1204;SDS011;592;48.764;9.174;2023-08-12T17:39:06;5.40;;;2.80;;
1204;SDS011;592;48.764;9.174;2023-08-12T17:41:33;5.47;;;2.67;;
1204;SDS011;592;48.764;9.174;2023-08-12T17:44:00;4.00;;;2.07;;
1204;SDS011;592;48.764;9.174;2023-08-12T17:46:27;5.80;;;2.93;;
1204;SDS011;592;48.764;9.174;2023-08-12T17:48:54;8.17;;;3.70;;
1204;SDS011;592;48.764;9.174;2023-08-12T17:51:20;5.17;;;2.67;;
1204;SDS011;592;48.764;9.174;2023-08-12T17:53:48;6.37;;;2.93;;
1204;SDS011;592;48.764;9.174;2023-08-12T17:56:16;5.10;;;2.60;;
1204;SDS011;592;48.764;9.174;2023-08-12T17:58:43;5.53;;;2.70;;
1204;SDS011;592;48.764;9.174;2023-08-12T18:01:10;5.80;;;3.03;;
1204;SDS011;592;48.764;9.174;2023-08-12T18:03:37;4.97;;;2.70;;
1204;SDS011;592;48.764;9.174;2023-08-12T18:06:04;7.00;;;3.20;;
1204;SDS011;592;48.764;9.174;2023-08-12T18:08:31;5.50;;;2.73;;
1204;SDS011;592;48.764;9.174;2023-08-12T18:11:00;5.00;;;2.57;;
1204;SDS011;592;48.764;9.174;2023-08-12T18:13:27;5.80;;;3.10;;
1204;SDS011;592;48.764;9.174;2023-08-12T18:15:54;5.10;;;3.23;;
1204;SDS011;592;48.764;9.174;2023-08-12T18:18:21;6.67;;;3.60;;
1204;SDS011;592;48.764;9.174;2023-08-12T18:20:48;5.80;;;2.87;;
1204;SDS011;592;48.764;9.174;2023-08-12T18:23:14;5.40;;;2.97;;
1204;SDS011;592;48.764;9.174;2023-08-12T18:25:41;4.67;;;2.63;;
1204;SDS011;592;48.764;9.174;2023-08-12T18:28:09;6.60;;;3.20;;
1204;SDS011;592;48.764;9.174;2023-08-12T18:30:36;5.47;;;3.00;;
1204;SDS011;592;48.764;9.174;2023-08-12T18:33:03;5.60;;;3.10;;
1204;SDS011;592;48.764;9.174;2023-08-12T18:35:30;6.57;;;3.73;;
1204;SDS011;592;48.764;9.174;2023-08-12T18:37:57;5.70;;;2.77;;
1204;SDS011;592;48.764;9.174;2023-08-12T18:40:24;7.60;;;3.13;;
1204;SDS011;592;48.764;9.174;2023-08-12T18:42:51;4.83;;;2.60;;
1204;SDS011;592;48.764;9.174;2023-08-12T18:45:19;5.27;;;3.30;;
1204;SDS011;592;48.764;9.174;2023-08-12T18:47:46;4.80;;;2.90;;
1204;SDS011;592;48.764;9.174;2023-08-12T18:50:12;5.33;;;3.00;;
1204;SDS011;592;48.764;9.174;2023-08-12T18:52:39;5.60;;;3.33;;
1204;SDS011;592;48.764;9.174;2023-08-12T18:55:06;6.07;;;3.03;;
1204;SDS011;592;48.764;9.174;2023-08-12T18:57:35;6.03;;;3.37;;
1204;SDS011;592;48.764;9.174;2023-08-12T19:00:01;5.03;;;3.00;;
1204;SDS011;592;48.764;9.174;2023-08-12T19:02:31;5.80;;;3.33;;
1204;SDS011;592;48.764;9.174;2023-08-12T19:04:59;7.03;;;3.43;;
1204;SDS011;592;48.764;9.174;2023-08-12T19:07:25;6.10;;;3.50;;
1204;SDS011;592;48.764;9.174;2023-08-12T19:09:52;5.70;;;3.03;;
1204;SDS011;592;48.764;9.174;2023-08-12T19:12:19;5.10;;;3.10;;
1204;SDS011;592;48.764;9.174;2023-08-12T19:14:46;5.73;;;3.53;;
1204;SDS011;592;48.764;9.174;2023-08-12T19:17:12;7.13;;;3.50;;
1204;SDS011;592;48.764;9.174;2023-08-12T19:19:40;5.50;;;3.37;;
1204;SDS011;592;48.764;9.174;2023-08-12T19:22:07;5.67;;;3.13;;
1204;SDS011;592;48.764;9.174;2023-08-12T19:24:34;10.37;;;4.00;;
1204;SDS011;592;48.764;9.174;2023-08-12T19:27:00;7.10;;;3.57;;
1204;SDS011;592;48.764;9.174;2023-08-12T19:29:27;7.00;;;3.30;;
1204;SDS011;592;48.764;9.174;2023-08-12T19:31:54;6.47;;;3.70;;
1204;SDS011;592;48.764;9.174;2023-08-12T19:34:21;6.80;;;3.87;;
1204;SDS011;592;48.764;9.174;2023-08-12T19:36:49;5.97;;;4.23;;
1204;SDS011;592;48.764;9.174;2023-08-12T19:39:16;6.10;;;3.90;;
1204;SDS011;592;48.764;9.174;2023-08-12T19:41:43;7.20;;;4.43;;
1204;SDS011;592;48.764;9.174;2023-08-12T19:44:09;6.00;;;3.80;;
1204;SDS011;592;48.764;9.174;2023-08-12T19:46:36;7.00;;;4.23;;
1204;SDS011;592;48.764;9.174;2023-08-12T19:49:03;8.00;;;4.03;;
1204;SDS011;592;48.764;9.174;2023-08-12T19:51:29;7.33;;;3.90;;
1204;SDS011;592;48.764;9.174;2023-08-12T19:53:57;7.43;;;4.17;;
1204;SDS011;592;48.764;9.174;2023-08-12T19:56:24;5.20;;;3.30;;
1204;SDS011;592;48.764;9.174;2023-08-12T19:58:51;4.37;;;3.00;;
1204;SDS011;592;48.764;9.174;2023-08-12T20:01:18;5.77;;;3.90;;
1204;SDS011;592;48.764;9.174;2023-08-12T20:03:45;5.37;;;3.43;;
1204;SDS011;592;48.764;9.174;2023-08-12T20:06:11;5.27;;;3.40;;
1204;SDS011;592;48.764;9.174;2023-08-12T20:08:38;7.73;;;4.30;;
1204;SDS011;592;48.764;9.174;2023-08-12T20:11:06;7.17;;;4.43;;
1204;SDS011;592;48.764;9.174;2023-08-12T20:13:34;6.97;;;4.07;;